Time;durP1;ratioP1;P1;durP2;ratioP2;P2;SDS_P1;SDS_P2;PMS_P1;PMS_P2;Temp;Humidity;BMP_temperature;BMP_pressure;BME280_temperature;BME280_humidity;BME280_pressure;Samples;Min_cycle;Max_cycle;Signal;HPM_P1;HPM_P2
2021/10/31 00:01:48;;;;;;;81.65;52.45;;;;;;;2.40;100.00;102519.13;1705151;83;21038;-80
2021/10/31 00:04:15;;;;;;;84.47;51.13;;;;;;;2.28;100.00;102517.98;1705569;84;21122;-80
2021/10/31 00:06:42;;;;;;;83.00;54.08;;;;;;;2.28;100.00;102517.98;1683402;84;21455;-82
2021/10/31 00:09:09;;;;;;;87.30;53.58;;;;;;;2.25;100.00;102515.42;1705708;83;21038;-81
2021/10/31 00:11:37;;;;;;;85.57;54.42;;;;;;;2.17;100.00;102520.63;1705448;84;21089;-80
2021/10/31 00:14:05;;;;;;;89.72;56.77;;;;;;;2.08;100.00;102516.43;1705998;83;21649;-80
2021/10/31 00:16:33;;;;;;;94.85;57.93;;;;;;;2.03;100.00;102516.92;1705208;83;21130;-80
2021/10/31 00:19:00;;;;;;;81.75;52.70;;;;;;;1.97;100.00;102511.39;1684094;83;21564;-80
2021/10/31 00:21:27;;;;;;;89.62;54.20;;;;;;;1.89;100.00;102519.59;1705640;83;21037;-79
2021/10/31 00:23:55;;;;;;;88.00;53.38;;;;;;;1.85;100.00;102517.90;1705221;83;21059;-80
2021/10/31 00:26:22;;;;;;;84.83;53.75;;;;;;;1.87;100.00;102521.31;1705462;83;21081;-80
2021/10/31 00:28:50;;;;;;;87.10;54.58;;;;;;;1.91;100.00;102519.58;1705640;83;21153;-79
2021/10/31 00:31:17;;;;;;;92.02;58.35;;;;;;;1.92;100.00;102514.86;1705295;83;21034;-79
2021/10/31 00:33:44;;;;;;;98.82;61.60;;;;;;;1.88;100.00;102521.30;1705482;83;21117;-80
2021/10/31 00:36:11;;;;;;;97.12;59.63;;;;;;;1.82;100.00;102520.06;1705635;83;21646;-80
2021/10/31 00:38:38;;;;;;;101.27;60.78;;;;;;;1.73;100.00;102514.99;1706028;83;21054;-81
2021/10/31 00:41:05;;;;;;;106.85;64.77;;;;;;;1.67;100.00;102518.91;1693173;83;21480;-80
2021/10/31 00:43:32;;;;;;;94.60;59.50;;;;;;;1.64;100.00;102518.94;1710708;83;21965;-80
2021/10/31 00:45:59;;;;;;;100.38;59.53;;;;;;;1.63;100.00;102526.22;1710315;82;21064;-81
2021/10/31 00:48:26;;;;;;;98.05;61.77;;;;;;;1.59;100.00;102522.83;1679298;83;21530;-81
2021/10/31 00:50:53;;;;;;;92.05;58.70;;;;;;;1.55;100.00;102521.99;1710747;83;21006;-81
2021/10/31 00:53:21;;;;;;;93.95;58.48;;;;;;;1.54;100.00;102520.70;1710492;82;21206;-83
2021/10/31 00:55:48;;;;;;;104.63;63.98;;;;;;;1.54;100.00;102515.15;1678874;83;21096;-83
2021/10/31 00:58:18;;;;;;;91.85;58.17;;;;;;;1.55;100.00;102513.42;1697088;82;21663;-82
2021/10/31 01:00:47;;;;;;;;;;;;;;;1.53;100.00;102512.56;1699295;84;21066;-82
2021/10/31 01:03:14;;;;;;;85.00;51.75;;;;;;;1.54;100.00;102513.00;1696716;84;20147;-81
2021/10/31 01:05:48;;;;;;;81.20;51.35;;;;;;;1.51;100.00;102506.17;1664761;84;21098;-81
2021/10/31 01:08:46;;;;;;;86.02;53.15;;;;;;;1.54;100.00;102503.59;1661000;84;21647;-80
2021/10/31 01:11:33;;;;;;;77.95;49.42;;;;;;;1.56;100.00;102496.70;1671504;84;21070;-80
2021/10/31 01:14:21;;;;;;;90.53;55.33;;;;;;;1.61;100.00;102498.41;1689981;84;21093;-83
2021/10/31 01:17:20;;;;;;;85.57;54.25;;;;;;;1.57;100.00;102495.84;1631728;86;21110;-82
2021/10/31 01:20:06;;;;;;;91.95;56.02;;;;;;;1.52;100.00;102500.63;1655592;86;21067;-79
2021/10/31 01:22:59;;;;;;;95.85;59.10;;;;;;;1.47;100.00;102491.66;1663641;84;21015;-81
2021/10/31 01:25:59;;;;;;;99.30;62.53;;;;;;;1.38;100.00;102498.14;1692339;84;21602;-79
2021/10/31 01:29:00;;;;;;;93.78;59.55;;;;;;;1.32;100.00;102499.47;1695449;84;21063;-81
2021/10/31 01:32:01;;;;;;;97.17;60.23;;;;;;;1.24;100.00;102498.21;1697234;84;21094;-81
2021/10/31 01:35:02;;;;;;;105.37;64.32;;;;;;;1.18;100.00;102499.54;1696367;84;21121;-82
2021/10/31 01:38:11;;;;;;;100.40;60.35;;;;;;;1.13;100.00;102497.41;1696810;84;28836;-80
2021/10/31 01:40:52;;;;;;;107.45;65.80;;;;;;;1.07;100.00;102506.02;1692048;84;21678;-81
2021/10/31 01:43:33;;;;;;;113.22;69.53;;;;;;;0.99;100.00;102502.63;1696319;84;21046;-80
2021/10/31 01:46:33;;;;;;;101.15;67.58;;;;;;;0.96;100.00;102505.20;1692323;84;21103;-79
2021/10/31 01:49:12;;;;;;;104.40;66.92;;;;;;;0.93;100.00;102502.22;1662734;84;21183;-80
2021/10/31 01:51:46;;;;;;;102.38;67.65;;;;;;;0.92;100.00;102507.77;1665624;84;21078;-80
2021/10/31 01:54:19;;;;;;;115.25;72.25;;;;;;;0.93;100.00;102507.36;1660082;84;21118;-80
2021/10/31 01:56:51;;;;;;;113.83;72.17;;;;;;;0.91;100.00;102506.50;1692746;84;21057;-82
2021/10/31 01:59:26;;;;;;;107.92;67.97;;;;;;;0.85;100.00;102503.97;1664036;84;21161;-80
2021/10/31 02:01:56;;;;;;;103.70;66.95;;;;;;;0.77;100.00;102498.44;1686725;84;21102;-80
2021/10/31 02:04:25;;;;;;;102.78;70.50;;;;;;;0.73;100.00;102504.87;1695937;84;21154;-80
2021/10/31 02:06:53;;;;;;;104.47;67.25;;;;;;;0.72;100.00;102500.59;1696577;84;22229;-80
2021/10/31 02:09:23;;;;;;;112.65;70.72;;;;;;;0.71;100.00;102497.19;1664413;84;22025;-80
2021/10/31 02:11:52;;;;;;;113.65;71.33;;;;;;;0.72;100.00;102496.75;1663289;82;21137;-83
2021/10/31 02:14:21;;;;;;;105.27;66.60;;;;;;;0.70;100.00;102492.05;1678152;83;21166;-80
2021/10/31 02:16:48;;;;;;;110.40;69.00;;;;;;;0.71;100.00;102501.45;1679636;83;21542;-79
2021/10/31 02:19:25;;;;;;;104.25;65.52;;;;;;;0.72;100.00;102493.73;1679396;83;21035;-81
2021/10/31 02:21:59;;;;;;;111.28;70.00;;;;;;;0.74;100.00;102495.88;1693258;83;21047;-84
2021/10/31 02:24:27;;;;;;;99.37;63.60;;;;;;;0.78;100.00;102497.59;1661934;84;21030;-82
2021/10/31 02:26:56;;;;;;;93.15;62.00;;;;;;;0.82;100.00;102500.98;1696389;84;21106;-80
2021/10/31 02:29:25;;;;;;;94.62;61.98;;;;;;;0.90;100.00;102496.69;1696170;84;21855;-81
2021/10/31 02:31:54;;;;;;;108.12;71.35;;;;;;;1.00;100.00;102491.52;1696541;84;21082;-80
2021/10/31 02:34:21;;;;;;;100.53;66.35;;;;;;;1.04;100.00;102485.49;1696288;84;21122;-80
2021/10/31 02:36:48;;;;;;;105.45;67.20;;;;;;;1.02;100.00;102480.79;1664742;84;21101;-79
2021/10/31 02:39:15;;;;;;;103.70;68.40;;;;;;;0.99;100.00;102483.39;1696033;84;21181;-82
2021/10/31 02:41:42;;;;;;;96.02;64.12;;;;;;;0.98;100.00;102486.81;1709617;81;21038;-80
2021/10/31 02:44:09;;;;;;;96.32;64.70;;;;;;;1.04;100.00;102486.77;1709725;83;21077;-79
2021/10/31 02:46:37;;;;;;;117.85;76.77;;;;;;;1.12;100.00;102487.59;1709698;83;21089;-80
2021/10/31 02:49:06;;;;;;;114.75;74.55;;;;;;;1.13;100.00;102482.88;1709490;83;21105;-80
2021/10/31 02:52:06;;;;;;;125.62;75.12;;;;;;;1.09;100.00;102486.30;1679113;83;21051;-79
2021/10/31 02:54:57;;;;;;;109.37;70.17;;;;;;;1.05;100.00;102488.04;1703003;83;21065;-80
2021/10/31 02:57:52;;;;;;;140.10;86.70;;;;;;;1.00;100.00;102485.94;1662336;84;21103;-80
2021/10/31 03:00:21;;;;;;;124.78;77.95;;;;;;;0.93;100.00;102482.54;1703072;83;21059;-80
2021/10/31 03:02:53;;;;;;;144.28;85.65;;;;;;;0.89;100.00;102487.28;1705244;81;21029;-80
2021/10/31 03:05:19;;;;;;;130.70;85.05;;;;;;;0.86;100.00;102480.86;1709063;82;22265;-81
2021/10/31 03:07:47;;;;;;;138.40;86.05;;;;;;;0.80;100.00;102474.93;1726358;81;21045;-80
2021/10/31 03:10:18;;;;;;;140.57;90.45;;;;;;;0.76;100.00;102470.25;1718170;81;21073;-81
2021/10/31 03:12:50;;;;;;;136.90;89.15;;;;;;;0.72;100.00;102467.25;1708709;82;21021;-80
2021/10/31 03:15:18;;;;;;;138.77;89.30;;;;;;;0.66;100.00;102473.70;1705342;82;21100;-79
2021/10/31 03:17:45;;;;;;;163.85;101.82;;;;;;;0.65;100.00;102468.14;1679305;84;21143;-80
2021/10/31 03:20:13;;;;;;;148.40;94.35;;;;;;;0.65;100.00;102471.55;1678353;83;21380;-79
2021/10/31 03:22:39;;;;;;;161.05;101.25;;;;;;;0.60;100.00;102467.71;1678606;83;21071;-79
2021/10/31 03:25:07;;;;;;;165.85;103.78;;;;;;;0.57;100.00;102467.74;1678640;83;21012;-79
2021/10/31 03:27:35;;;;;;;163.28;101.10;;;;;;;0.53;100.00;102466.03;1678702;83;21558;-81
2021/10/31 03:30:04;;;;;;;171.28;105.72;;;;;;;0.52;100.00;102473.30;1679307;84;21565;-80
2021/10/31 03:32:31;;;;;;;161.57;101.15;;;;;;;0.50;100.00;102471.59;1678978;83;21027;-79
2021/10/31 03:34:58;;;;;;;152.65;98.30;;;;;;;0.50;100.00;102469.03;1677982;84;21082;-79
2021/10/31 03:37:26;;;;;;;162.77;102.40;;;;;;;0.50;100.00;102462.62;1646764;85;21066;-80
2021/10/31 03:39:53;;;;;;;179.93;111.37;;;;;;;0.48;100.00;102462.64;1678342;83;21020;-79
2021/10/31 03:42:20;;;;;;;163.55;103.53;;;;;;;0.45;100.00;102458.80;1664901;85;21150;-80
2021/10/31 03:44:48;;;;;;;164.30;103.85;;;;;;;0.40;100.00;102454.13;1665081;84;21115;-79
2021/10/31 03:47:19;;;;;;;174.68;107.85;;;;;;;0.36;100.00;102455.00;1654856;84;21072;-80
2021/10/31 03:49:46;;;;;;;144.75;98.20;;;;;;;0.33;100.00;102457.56;1665977;85;21302;-81
2021/10/31 03:52:13;;;;;;;183.70;109.92;;;;;;;0.29;100.00;102458.00;1679678;83;21084;-81
2021/10/31 03:54:41;;;;;;;157.88;100.10;;;;;;;0.38;100.00;102451.98;1680783;84;21934;-80
2021/10/31 03:57:08;;;;;;;171.57;108.80;;;;;;;0.57;100.00;102451.48;1682982;83;21068;-80
2021/10/31 03:59:37;;;;;;;183.72;115.50;;;;;;;0.58;100.00;102450.22;1687746;83;21841;-83
2021/10/31 04:02:05;;;;;;;183.20;108.95;;;;;;;0.51;100.00;102448.55;1667478;84;21100;-82
2021/10/31 04:04:32;;;;;;;166.03;106.12;;;;;;;0.43;100.00;102438.30;1688433;83;21048;-81
2021/10/31 04:06:59;;;;;;;174.53;109.65;;;;;;;0.41;100.00;102430.20;1688193;83;21116;-81
2021/10/31 04:09:26;;;;;;;174.15;110.03;;;;;;;0.39;100.00;102431.50;1688190;83;21064;-81
2021/10/31 04:11:54;;;;;;;185.90;114.05;;;;;;;0.37;100.00;102433.61;1688573;83;21115;-81
2021/10/31 04:14:21;;;;;;;175.22;104.72;;;;;;;0.35;100.00;102430.23;1669730;83;21040;-78
2021/10/31 04:16:49;;;;;;;180.57;114.85;;;;;;;0.53;100.00;102424.17;1662026;85;21111;-81
2021/10/31 04:19:16;;;;;;;170.02;112.45;;;;;;;1.08;100.00;102425.17;1682051;83;21211;-80
2021/10/31 04:21:43;;;;;;;181.12;116.20;;;;;;;1.35;100.00;102418.56;1682666;83;21136;-81
2021/10/31 04:24:10;;;;;;;196.20;123.58;;;;;;;1.28;100.00;102413.93;1682350;83;21056;-82
2021/10/31 04:26:37;;;;;;;188.35;121.90;;;;;;;1.16;100.00;102416.13;1683588;83;21574;-81
2021/10/31 04:29:04;;;;;;;213.20;122.35;;;;;;;1.05;100.00;102417.48;1682985;83;21122;-82
2021/10/31 04:31:31;;;;;;;215.47;134.18;;;;;;;0.97;100.00;102415.84;1682527;83;21152;-82
2021/10/31 04:33:59;;;;;;;219.40;134.95;;;;;;;0.94;100.00;102411.14;1682421;84;21099;-83
2021/10/31 04:36:30;;;;;;;225.43;138.80;;;;;;;0.97;100.00;102408.14;1685809;83;21613;-83
2021/10/31 04:38:55;;;;;;;220.88;139.43;;;;;;;0.98;100.00;102408.56;1686452;82;21068;-83
2021/10/31 04:41:30;;;;;;;196.68;125.95;;;;;;;0.95;100.00;102415.85;1701125;82;21092;-83
2021/10/31 04:43:52;;;;;;;209.98;136.82;;;;;;;0.98;100.00;102412.41;1711103;83;21170;-83
2021/10/31 04:46:19;;;;;;;213.18;128.23;;;;;;;1.03;100.00;102410.25;1685247;83;21086;-84
2021/10/31 04:48:46;;;;;;;232.52;130.55;;;;;;;1.04;100.00;102415.77;1712411;83;21625;-84
2021/10/31 04:51:13;;;;;;;225.57;146.62;;;;;;;1.21;100.00;102413.53;1712352;82;21030;-83
2021/10/31 04:53:41;;;;;;;224.10;134.80;;;;;;;1.35;100.00;102406.60;1705774;83;21612;-79
2021/10/31 04:56:08;;;;;;;228.12;144.02;;;;;;;1.34;100.00;102415.58;1708172;83;21740;-81
2021/10/31 04:58:35;;;;;;;207.52;132.60;;;;;;;1.31;100.00;102414.33;1706587;82;21568;-80
2021/10/31 05:01:04;;;;;;;220.25;137.62;;;;;;;1.28;100.00;102409.20;1710090;83;21105;-81
2021/10/31 05:03:33;;;;;;;214.42;131.30;;;;;;;1.28;100.00;102407.92;1695621;83;21102;-79
2021/10/31 05:05:59;;;;;;;223.70;141.70;;;;;;;1.27;100.00;102414.79;1708353;83;21082;-79
2021/10/31 05:08:27;;;;;;;226.27;141.28;;;;;;;1.43;100.00;102418.08;1707824;83;21105;-80
2021/10/31 05:10:54;;;;;;;236.87;146.13;;;;;;;1.58;100.00;102414.09;1708317;83;21051;-81
2021/10/31 05:13:22;;;;;;;221.50;141.35;;;;;;;1.72;100.00;102413.98;1689138;83;21034;-80
2021/10/31 05:15:49;;;;;;;231.10;134.32;;;;;;;1.72;100.00;102414.43;1707683;83;21092;-81
2021/10/31 05:18:17;;;;;;;226.02;142.15;;;;;;;1.70;100.00;102411.02;1698055;83;21665;-83
2021/10/31 05:20:45;;;;;;;216.75;138.28;;;;;;;1.84;100.00;102411.73;1708116;82;21178;-81
2021/10/31 05:23:12;;;;;;;214.08;137.60;;;;;;;1.80;100.00;102411.77;1714074;82;21059;-83
2021/10/31 05:25:41;;;;;;;212.38;133.03;;;;;;;1.75;100.00;102416.95;1688008;83;21035;-79
2021/10/31 05:28:08;;;;;;;216.50;135.25;;;;;;;1.69;100.00;102417.84;1702009;82;21531;-80
2021/10/31 05:30:37;;;;;;;208.15;133.70;;;;;;;1.67;100.00;102411.03;1704846;83;21030;-81
2021/10/31 05:33:05;;;;;;;197.43;124.38;;;;;;;1.59;100.00;102413.68;1683022;83;21097;-82
2021/10/31 05:35:34;;;;;;;203.62;127.58;;;;;;;1.57;100.00;102420.53;1707082;82;21049;-80
2021/10/31 05:38:04;;;;;;;183.80;120.60;;;;;;;1.70;100.00;102425.14;1710793;82;21050;-81
2021/10/31 05:40:32;;;;;;;176.07;111.08;;;;;;;1.72;100.00;102425.54;1709334;83;21047;-80
2021/10/31 05:43:00;;;;;;;182.07;117.42;;;;;;;1.86;100.00;102424.55;1708224;84;21096;-81
2021/10/31 05:45:29;;;;;;;169.72;114.10;;;;;;;2.16;100.00;102432.39;1711712;83;21204;-82
2021/10/31 05:47:56;;;;;;;190.05;121.62;;;;;;;2.49;100.00;102430.31;1713238;83;22862;-79
2021/10/31 05:50:23;;;;;;;192.05;125.40;;;;;;;2.84;100.00;102428.98;1713444;82;21717;-81
2021/10/31 05:52:50;;;;;;;189.30;124.80;;;;;;;3.12;100.00;102429.89;1712992;82;21097;-81
2021/10/31 05:55:18;;;;;;;190.85;127.12;;;;;;;3.27;100.00;102432.69;1692998;83;21543;-80
2021/10/31 05:57:46;;;;;;;189.52;122.70;;;;;;;3.43;100.00;102436.31;1713006;83;21803;-82
2021/10/31 06:00:16;;;;;;;192.57;124.62;;;;;;;3.52;100.00;102434.01;1713529;83;21531;-81
2021/10/31 06:02:45;;;;;;;184.43;122.95;;;;;;;3.61;100.00;102439.02;1714807;82;21685;-80
2021/10/31 06:05:15;;;;;;;165.77;113.47;;;;;;;3.61;100.00;102439.02;1687123;83;38459;-80
2021/10/31 06:07:45;;;;;;;173.17;116.15;;;;;;;3.67;100.00;102437.62;1709636;82;21025;-80
2021/10/31 06:10:12;;;;;;;164.40;111.92;;;;;;;3.66;100.00;102436.36;1713265;83;21080;-81
2021/10/31 06:12:46;;;;;;;163.75;109.65;;;;;;;3.59;100.00;102438.19;1713062;83;21025;-80
2021/10/31 06:15:15;;;;;;;156.12;106.55;;;;;;;3.60;100.00;102428.30;1713429;82;21100;-81
2021/10/31 06:17:43;;;;;;;160.65;104.15;;;;;;;3.83;100.00;102430.48;1713302;83;21042;-81
2021/10/31 06:20:13;;;;;;;160.43;106.32;;;;;;;3.83;100.00;102430.48;1713609;83;21084;-80
2021/10/31 06:22:41;;;;;;;151.15;100.70;;;;;;;3.85;100.00;102426.58;1713278;83;22228;-80
2021/10/31 06:25:11;;;;;;;145.47;96.90;;;;;;;3.79;100.00;102425.83;1713302;83;21775;-80
2021/10/31 06:27:40;;;;;;;137.25;91.40;;;;;;;3.73;100.00;102423.34;1713297;83;21993;-82
2021/10/31 06:30:08;;;;;;;133.82;92.30;;;;;;;3.73;100.00;102425.91;1713634;83;21536;-81
2021/10/31 06:32:35;;;;;;;139.75;91.80;;;;;;;3.84;100.00;102427.45;1712493;83;21115;-80
2021/10/31 06:35:05;;;;;;;130.60;87.70;;;;;;;3.99;100.00;102423.31;1712704;83;21150;-80
2021/10/31 06:37:34;;;;;;;130.50;88.30;;;;;;;4.07;100.00;102418.86;1688902;83;21012;-81
2021/10/31 06:40:01;;;;;;;140.90;92.10;;;;;;;4.18;100.00;102419.11;1711116;83;21090;-81
2021/10/31 06:42:29;;;;;;;125.95;86.75;;;;;;;4.26;100.00;102418.52;1695744;83;21021;-80
2021/10/31 06:44:56;;;;;;;124.60;83.75;;;;;;;4.30;100.00;102419.31;1660626;84;21585;-80
2021/10/31 06:47:24;;;;;;;123.25;82.97;;;;;;;4.39;100.00;102412.22;1690156;83;21160;-81
2021/10/31 06:49:51;;;;;;;119.70;82.85;;;;;;;4.60;100.00;102415.26;1686160;83;21557;-81
2021/10/31 06:52:19;;;;;;;125.85;84.83;;;;;;;4.60;100.00;102415.26;1680501;83;21029;-80
2021/10/31 06:54:47;;;;;;;131.10;83.97;;;;;;;4.76;100.00;102408.02;1657723;84;21075;-82
2021/10/31 06:57:15;;;;;;;160.57;81.30;;;;;;;4.86;100.00;102406.94;1680613;84;21044;-82
2021/10/31 06:59:42;;;;;;;119.77;81.53;;;;;;;5.00;100.00;102409.64;1680850;84;21108;-80
2021/10/31 07:02:10;;;;;;;124.55;78.67;;;;;;;5.13;100.00;102403.75;1658140;84;21064;-81
2021/10/31 07:04:36;;;;;;;114.60;75.00;;;;;;;5.19;100.00;102412.22;1680442;83;21104;-82
2021/10/31 07:07:05;;;;;;;109.32;72.42;;;;;;;5.19;100.00;102405.77;1680952;83;21078;-82
2021/10/31 07:09:33;;;;;;;105.78;71.33;;;;;;;5.21;100.00;102403.97;1680574;83;21538;-81
2021/10/31 07:12:00;;;;;;;101.95;67.95;;;;;;;5.32;100.00;102405.02;1681318;83;22163;-81
2021/10/31 07:14:27;;;;;;;108.40;71.62;;;;;;;5.40;100.00;102407.41;1681122;85;21005;-80
2021/10/31 07:16:55;;;;;;;107.25;70.22;;;;;;;5.58;100.00;102398.79;1680970;84;21214;-80
2021/10/31 07:19:23;;;;;;;105.97;68.92;;;;;;;5.73;100.00;102395.81;1680930;84;21091;-81
2021/10/31 07:21:59;;;;;;;105.60;68.52;;;;;;;5.79;100.00;102398.22;1681064;84;21331;-82
2021/10/31 07:24:26;;;;;;;103.97;68.25;;;;;;;5.85;100.00;102402.39;1680858;84;22008;-80
2021/10/31 07:26:54;;;;;;;102.20;67.47;;;;;;;5.98;100.00;102399.87;1658031;83;21040;-80
2021/10/31 07:29:21;;;;;;;99.83;66.85;;;;;;;6.09;100.00;102398.77;1680807;83;22228;-80
2021/10/31 07:31:49;;;;;;;96.63;61.85;;;;;;;6.15;100.00;102399.45;1702423;83;21093;-80
2021/10/31 07:34:16;;;;;;;92.27;59.73;;;;;;;6.23;100.00;102396.63;1704683;83;21120;-80
2021/10/31 07:36:44;;;;;;;82.35;55.05;;;;;;;6.41;100.00;102395.25;1704861;83;21214;-80
2021/10/31 07:39:12;;;;;;;80.57;53.83;;;;;;;6.56;100.00;102391.38;1704822;83;21054;-80
2021/10/31 07:41:40;;;;;;;77.10;53.17;;;;;;;6.75;100.00;102391.66;1704181;83;21038;-80
2021/10/31 07:44:09;;;;;;;74.45;50.20;;;;;;;6.93;100.00;102390.70;1703986;82;21110;-80
2021/10/31 07:46:36;;;;;;;64.62;46.80;;;;;;;7.08;100.00;102383.73;1710612;82;21081;-80
2021/10/31 07:49:04;;;;;;;69.80;49.73;;;;;;;7.23;100.00;102386.29;1704595;83;21196;-80
2021/10/31 07:51:32;;;;;;;71.77;48.25;;;;;;;7.37;100.00;102383.68;1682046;83;21058;-81
2021/10/31 07:53:59;;;;;;;64.35;44.58;;;;;;;7.50;100.00;102384.12;1709036;82;21033;-81
2021/10/31 07:56:30;;;;;;;63.30;43.35;;;;;;;7.64;100.00;102383.66;1703620;82;21033;-80
2021/10/31 07:58:57;;;;;;;61.23;43.33;;;;;;;7.76;100.00;102383.22;1701581;83;21109;-84
2021/10/31 08:01:27;;;;;;;57.38;41.45;;;;;;;7.89;100.00;102379.28;1705294;84;21821;-83
2021/10/31 08:03:54;;;;;;;60.12;40.15;;;;;;;7.98;100.00;102375.53;1679236;84;21531;-82
2021/10/31 08:06:23;;;;;;;57.40;37.88;;;;;;;8.08;100.00;102376.03;1697272;83;21380;-82
2021/10/31 08:08:51;;;;;;;53.65;37.90;;;;;;;8.18;100.00;102372.64;1689505;83;21087;-81
2021/10/31 08:11:19;;;;;;;69.30;38.92;;;;;;;8.29;100.00;102371.80;1690247;83;21107;-83
2021/10/31 08:13:45;;;;;;;52.20;37.00;;;;;;;8.42;100.00;102370.89;1654478;85;21164;-81
2021/10/31 08:16:14;;;;;;;53.48;34.73;;;;;;;8.56;100.00;102365.64;1711709;83;21572;-82
2021/10/31 08:18:41;;;;;;;53.02;37.38;;;;;;;8.67;100.00;102361.72;1705112;83;21145;-81
2021/10/31 08:21:15;;;;;;;51.30;35.55;;;;;;;8.78;100.00;102370.85;1704715;83;21603;-81
2021/10/31 08:23:41;;;;;;;50.92;34.92;;;;;;;8.86;100.00;102358.84;1704385;83;21085;-80
2021/10/31 08:26:08;;;;;;;50.05;34.95;;;;;;;8.97;100.00;102358.80;1705041;83;21780;-80
2021/10/31 08:28:39;;;;;;;49.85;34.00;;;;;;;9.08;100.00;102355.79;1705250;83;21058;-81
2021/10/31 08:31:06;;;;;;;59.45;35.15;;;;;;;9.14;100.00;102358.57;1701367;83;21054;-80
2021/10/31 08:33:35;;;;;;;52.67;35.70;;;;;;;9.19;100.00;102359.68;1704767;83;21081;-80
2021/10/31 08:36:05;;;;;;;52.43;35.90;;;;;;;9.25;100.00;102357.69;1704018;82;21093;-81
2021/10/31 08:38:32;;;;;;;47.15;34.15;;;;;;;9.31;100.00;102353.98;1704959;84;21171;-81
2021/10/31 08:41:00;;;;;;;53.48;32.45;;;;;;;9.33;100.00;102342.22;1704933;83;22007;-82
2021/10/31 08:43:27;;;;;;;49.75;33.48;;;;;;;9.38;100.00;102338.52;1690455;82;21088;-81
2021/10/31 08:45:55;;;;;;;49.13;32.85;;;;;;;9.51;100.00;102339.27;1713211;82;21049;-80
2021/10/31 08:48:25;;;;;;;45.15;31.85;;;;;;;9.63;100.00;102325.76;1712808;83;21295;-82
2021/10/31 08:50:55;;;;;;;45.90;30.20;;;;;;;9.80;100.00;102309.39;1692593;83;21411;-80
2021/10/31 08:53:26;;;;;;;51.05;26.07;;;;;;;9.80;100.00;102309.39;1687270;83;21394;-80
2021/10/31 08:55:52;;;;;;;36.73;23.67;;;;;;;9.91;100.00;102307.16;1709293;83;21097;-80
2021/10/31 08:58:19;;;;;;;36.75;26.77;;;;;;;10.04;100.00;102305.28;1713143;83;21006;-81
2021/10/31 09:00:47;;;;;;;32.35;23.50;;;;;;;10.13;100.00;102300.13;1690886;83;21626;-82
2021/10/31 09:03:14;;;;;;;32.98;23.07;;;;;;;10.23;100.00;102300.06;1714462;82;21126;-80
2021/10/31 09:05:41;;;;;;;31.33;22.82;;;;;;;10.32;100.00;102293.60;1713025;83;21041;-80
2021/10/31 09:08:09;;;;;;;31.12;22.77;;;;;;;10.38;100.00;102291.56;1712921;83;20970;-82
2021/10/31 09:10:40;;;;;;;28.87;18.80;;;;;;;10.48;100.00;102281.56;1716864;82;21021;-80
2021/10/31 09:13:08;;;;;;;25.25;18.23;;;;;;;10.61;100.00;102275.75;1704404;83;21052;-81
2021/10/31 09:15:37;;;;;;;23.57;16.73;;;;;;;10.70;100.00;102286.55;1713516;82;21017;-83
2021/10/31 09:18:05;;;;;;;18.98;14.78;;;;;;;10.80;100.00;102275.24;1712872;82;21089;-81
2021/10/31 09:20:35;;;;;;;19.17;14.13;;;;;;;10.92;100.00;102272.48;1712390;82;21040;-81
2021/10/31 09:23:05;;;;;;;19.48;14.00;;;;;;;11.01;100.00;102268.56;1691306;83;21108;-84
2021/10/31 09:25:35;;;;;;;17.48;13.10;;;;;;;11.08;100.00;102272.53;1712934;83;21804;-81
2021/10/31 09:28:05;;;;;;;29.15;14.60;;;;;;;11.17;100.00;102264.72;1689097;83;21092;-81
2021/10/31 09:30:39;;;;;;;17.52;13.38;;;;;;;11.25;100.00;102266.92;1690918;83;21535;-80
2021/10/31 09:33:12;;;;;;;20.77;13.85;;;;;;;11.32;100.00;102253.50;1710906;83;21091;-82
2021/10/31 09:35:47;;;;;;;17.50;13.90;;;;;;;11.43;100.00;102251.63;1722322;82;21083;-82
2021/10/31 09:38:12;;;;;;;18.73;13.13;;;;;;;11.52;100.00;102243.31;1675888;84;21617;-82
2021/10/31 09:59:00;;;;;;;39.63;17.95;;;;;;;12.43;100.00;102206.61;1841605;77;22750;-81
2021/10/31 10:01:58;;;;;;;31.95;15.03;;;;;;;12.45;100.00;102199.54;1785331;80;20977;-80
2021/10/31 10:04:37;;;;;;;27.80;14.23;;;;;;;12.48;100.00;102196.73;1755667;80;21783;-83
2021/10/31 10:07:07;;;;;;;13.45;10.35;;;;;;;12.50;100.00;102195.36;1725853;81;21013;-83
2021/10/31 10:09:36;;;;;;;36.08;19.80;;;;;;;12.52;97.02;102184.33;1781924;78;26320;-86
2021/10/31 10:12:19;;;;;;;53.98;29.20;;;;;;;12.54;95.58;102189.00;1760854;80;21099;-84
2021/10/31 10:15:00;;;;;;;34.45;20.17;;;;;;;12.55;95.21;102183.68;1713260;80;21040;-84
2021/10/31 10:17:50;;;;;;;20.02;14.83;;;;;;;12.51;95.13;102177.41;1761283;80;21209;-83
2021/10/31 10:20:26;;;;;;;21.25;13.18;;;;;;;12.49;96.75;102172.29;1781529;78;21008;-84
2021/10/31 10:23:15;;;;;;;21.12;13.10;;;;;;;12.49;95.74;102174.07;1781069;79;21031;-84
2021/10/31 10:25:42;;;;;;;15.53;10.93;;;;;;;12.48;95.96;102177.13;1750095;80;21700;-84
2021/10/31 10:28:26;;;;;;;19.98;13.18;;;;;;;12.52;95.12;102179.09;1784917;80;21617;-82
2021/10/31 10:30:58;;;;;;;26.62;15.95;;;;;;;12.52;93.22;102174.73;1742390;80;21959;-83
2021/10/31 10:33:25;;;;;;;18.77;12.05;;;;;;;12.51;93.24;102169.58;1718056;81;21071;-82
2021/10/31 10:35:58;;;;;;;49.00;13.93;;;;;;;12.51;91.83;102165.66;1757738;81;21041;-83
2021/10/31 10:38:27;;;;;;;14.00;10.85;;;;;;;12.53;91.10;102158.13;1755683;80;21555;-82
2021/10/31 10:40:54;;;;;;;15.63;12.00;;;;;;;12.55;86.99;102156.25;1799022;78;21037;-83
2021/10/31 10:43:32;;;;;;;15.05;10.45;;;;;;;12.54;85.71;102150.64;1787730;78;22151;-82
2021/10/31 10:46:11;;;;;;;17.98;12.65;;;;;;;12.54;87.57;102151.12;1767141;80;21059;-83
2021/10/31 10:48:57;;;;;;;59.40;34.30;;;;;;;12.53;89.82;102149.43;1764689;78;21175;-83
2021/10/31 10:51:24;;;;;;;37.48;20.65;;;;;;;12.51;90.40;102140.84;1771376;80;22404;-83
2021/10/31 10:54:15;;;;;;;90.83;47.40;;;;;;;12.49;88.20;102132.27;1787240;78;21064;-82
2021/10/31 10:57:06;;;;;;;24.15;15.72;;;;;;;12.46;88.68;102128.90;1787045;80;21084;-83
2021/10/31 10:59:36;;;;;;;31.42;20.88;;;;;;;12.49;91.39;102121.82;1779657;78;21139;-83
2021/10/31 11:02:18;;;;;;;17.77;13.90;;;;;;;12.50;86.03;102125.64;1786473;78;21118;-82
2021/10/31 11:04:52;;;;;;;20.48;12.20;;;;;;;12.52;84.67;102119.86;1776208;80;21060;-81
2021/10/31 11:07:37;;;;;;;21.37;12.75;;;;;;;12.53;82.14;102118.94;1755160;80;21302;-83
2021/10/31 11:10:20;;;;;;;21.93;13.83;;;;;;;12.55;83.18;102114.44;1760951;80;21569;-83
2021/10/31 11:12:51;;;;;;;18.57;13.80;;;;;;;12.55;82.43;102111.83;1768814;78;21091;-82
2021/10/31 11:15:24;;;;;;;27.62;17.60;;;;;;;12.54;86.41;102113.23;1784293;79;21025;-83
2021/10/31 11:17:56;;;;;;;25.45;17.02;;;;;;;12.52;83.68;102109.86;1778911;80;21051;-81
2021/10/31 11:20:28;;;;;;;19.20;14.13;;;;;;;12.54;82.30;102102.78;1773913;78;21067;-82
2021/10/31 11:22:58;;;;;;;20.55;14.10;;;;;;;12.54;87.67;102098.86;1775689;78;21157;-82
2021/10/31 11:25:28;;;;;;;27.30;15.93;;;;;;;12.53;87.41;102096.73;1739020;80;21108;-82
2021/10/31 11:27:57;;;;;;;22.65;14.15;;;;;;;12.53;85.63;102099.34;1746645;80;21096;-84
2021/10/31 11:30:28;;;;;;;24.07;14.35;;;;;;;12.54;86.12;102093.16;1770713;80;21023;-82
2021/10/31 11:32:56;;;;;;;24.02;14.18;;;;;;;12.53;80.66;102095.42;1781968;78;21036;-82
2021/10/31 11:35:26;;;;;;;21.95;12.75;;;;;;;12.54;79.10;102089.72;1786037;80;21141;-82
2021/10/31 11:38:07;;;;;;;24.65;15.60;;;;;;;12.53;79.18;102085.42;1786151;79;21072;-81